Time;durP1;ratioP1;P1;durP2;ratioP2;P2;SDS_P1;SDS_P2;PMS_P1;PMS_P2;Temp;Humidity;BMP_temperature;BMP_pressure;BME280_temperature;BME280_humidity;BME280_pressure;Samples;Min_cycle;Max_cycle;Signal;HPM_P1;HPM_P2
2022/01/28 00:00:25;;;;;;;54.30;25.00;;;;;;;-3.06;82.03;95557.22;5040435;28;20215;-68
2022/01/28 00:02:59;;;;;;;62.73;25.77;;;;;;;-2.92;81.40;95561.72;5040485;28;20420;-69
2022/01/28 00:05:27;;;;;;;50.03;22.83;;;;;;;-2.88;80.81;95558.50;5039074;28;20210;-68
2022/01/28 00:07:55;;;;;;;53.00;23.10;;;;;;;-2.77;80.42;95567.09;5038392;28;20544;-68
2022/01/28 00:10:25;;;;;;;66.80;24.37;;;;;;;-2.66;79.95;95549.09;5038718;28;20625;-69
2022/01/28 00:15:46;;;;;;;58.40;24.40;;;;;;;-2.65;80.02;95551.63;5036828;28;20233;-69
2022/01/28 00:18:37;;;;;;;59.20;25.33;;;;;;;-2.60;79.74;95550.09;5040158;28;20322;-69
2022/01/28 00:40:32;;;;;;;52.50;25.43;;;;;;;-2.90;81.24;95535.25;5035563;28;20254;-69
2022/01/28 00:42:58;;;;;;;79.57;30.93;;;;;;;-2.89;81.12;95536.94;5037402;28;20256;-69
2022/01/28 00:45:25;;;;;;;76.30;31.97;;;;;;;-2.90;80.69;95535.25;5037576;28;20211;-69
2022/01/28 00:47:52;;;;;;;78.80;32.43;;;;;;;-2.85;80.67;95537.84;5037668;28;20267;-70
2022/01/28 00:50:19;;;;;;;80.87;31.40;;;;;;;-2.86;80.63;95542.00;5038082;28;20199;-69
2022/01/28 00:52:47;;;;;;;73.47;33.10;;;;;;;-2.68;80.29;95528.31;5038527;28;20195;-69
2022/01/28 00:55:14;;;;;;;71.23;31.27;;;;;;;-2.57;79.23;95525.28;5038243;28;20320;-69
2022/01/28 00:57:41;;;;;;;85.87;31.30;;;;;;;-2.77;79.45;95524.81;5038003;28;20235;-69
2022/01/28 01:00:10;;;;;;;117.53;40.57;;;;;;;-2.77;79.44;95522.34;5037141;28;20253;-70
2022/01/28 01:02:37;;;;;;;103.27;40.30;;;;;;;-2.75;80.20;95524.84;5038023;28;20203;-69
2022/01/28 01:05:05;;;;;;;98.77;40.17;;;;;;;-2.60;79.33;95515.25;5039724;28;20199;-68
2022/01/28 01:07:31;;;;;;;108.27;43.43;;;;;;;-2.51;78.64;95508.03;5039268;28;20203;-69
2022/01/28 01:09:59;;;;;;;99.97;39.40;;;;;;;-2.66;78.69;95511.78;5039366;28;20894;-68
2022/01/28 01:12:30;;;;;;;136.67;45.70;;;;;;;-2.84;79.13;95509.69;5039462;28;20211;-69
2022/01/28 01:14:57;;;;;;;100.17;40.97;;;;;;;-3.00;80.22;95507.66;5039843;28;20202;-69
2022/01/28 01:17:33;;;;;;;115.77;42.43;;;;;;;-3.12;80.81;95500.72;5039640;28;20191;-69
2022/01/28 01:22:41;;;;;;;115.00;41.77;;;;;;;-3.14;81.26;95494.84;5027416;28;20206;-69
2022/01/28 01:25:21;;;;;;;102.70;41.03;;;;;;;-3.17;81.89;95499.75;5039199;28;20814;-69
2022/01/28 01:27:53;;;;;;;93.63;38.80;;;;;;;-2.95;81.43;95491.16;5039274;28;20666;-69
2022/01/28 01:30:20;;;;;;;96.90;39.30;;;;;;;-2.90;80.78;95484.66;5039979;28;20207;-69
2022/01/28 01:32:47;;;;;;;92.60;38.77;;;;;;;-2.88;80.00;95466.50;5039584;28;20273;-69
2022/01/28 01:35:14;;;;;;;103.20;40.30;;;;;;;-2.85;80.03;95473.19;5040112;28;20203;-69
2022/01/28 01:37:40;;;;;;;105.00;39.17;;;;;;;-3.03;80.47;95473.59;5038820;28;20234;-69
2022/01/28 01:40:09;;;;;;;108.83;40.60;;;;;;;-3.08;80.23;95465.19;5036325;28;20677;-69
2022/01/28 01:42:45;;;;;;;90.53;38.27;;;;;;;-3.09;80.55;95465.97;5037471;28;20624;-69
2022/01/28 01:53:28;;;;;;;105.27;38.47;;;;;;;-3.15;80.96;95459.22;5037903;28;20739;-68
2022/01/28 01:55:57;;;;;;;96.43;38.90;;;;;;;-3.09;80.49;95461.84;5036967;28;20203;-69
2022/01/28 01:58:24;;;;;;;111.47;39.63;;;;;;;-3.27;80.70;95458.06;5037066;28;20242;-67
2022/01/28 02:00:51;;;;;;;100.00;36.30;;;;;;;-3.21;80.81;95461.53;5036765;28;20208;-68
2022/01/28 02:03:18;;;;;;;82.00;36.33;;;;;;;-3.13;81.03;95459.25;5036127;28;20250;-69
2022/01/28 02:05:45;;;;;;;98.73;36.60;;;;;;;-3.16;81.47;95456.69;5035862;28;20289;-69
2022/01/28 02:08:13;;;;;;;89.33;33.60;;;;;;;-2.94;80.21;95443.97;5035976;28;20203;-69
2022/01/28 02:10:40;;;;;;;79.90;33.50;;;;;;;-3.09;80.74;95451.06;5037875;28;20312;-69
2022/01/28 02:13:08;;;;;;;75.17;29.57;;;;;;;-3.20;80.69;95449.94;5038813;28;20252;-68
2022/01/28 02:15:35;;;;;;;75.60;34.47;;;;;;;-3.41;81.52;95435.34;5039416;28;20336;-68
2022/01/28 02:18:01;;;;;;;56.17;25.67;;;;;;;-3.20;81.51;95444.97;5041836;28;20231;-68
2022/01/28 02:20:34;;;;;;;67.33;25.67;;;;;;;-3.14;80.65;95445.97;5042475;28;20203;-68
2022/01/28 02:23:01;;;;;;;58.20;24.23;;;;;;;-3.11;81.24;95450.19;5042942;28;20964;-68
2022/01/28 02:25:31;;;;;;;51.00;24.50;;;;;;;-2.89;80.01;95442.44;5042274;28;20718;-68
2022/01/28 02:28:01;;;;;;;55.83;24.67;;;;;;;-2.86;80.04;95432.56;5042303;28;20222;-69
2022/01/28 02:30:28;;;;;;;49.33;20.57;;;;;;;-2.83;79.48;95427.66;5042348;28;20724;-68
2022/01/28 02:33:01;;;;;;;44.73;19.63;;;;;;;-2.82;79.63;95428.50;5042250;28;20253;-69
2022/01/28 02:35:28;;;;;;;34.73;16.93;;;;;;;-2.85;78.90;95429.28;5042800;28;20219;-67
2022/01/28 02:37:56;;;;;;;35.70;19.63;;;;;;;-3.34;80.58;95426.41;5041392;28;20694;-68
2022/01/28 02:40:23;;;;;;;38.43;16.40;;;;;;;-3.77;82.65;95426.16;5040886;28;20199;-68
2022/01/28 02:42:59;;;;;;;24.37;14.30;;;;;;;-3.54;82.79;95424.25;5040454;28;20199;-69
2022/01/28 02:45:31;;;;;;;35.77;16.17;;;;;;;-3.21;81.29;95428.38;5042219;28;20203;-67
2022/01/28 02:48:01;;;;;;;29.83;15.57;;;;;;;-3.21;80.86;95418.44;5038525;28;20292;-67
2022/01/28 02:50:32;;;;;;;29.77;14.00;;;;;;;-3.43;80.90;95422.88;5039723;28;20789;-67
2022/01/28 02:53:06;;;;;;;27.60;14.37;;;;;;;-3.33;80.48;95421.47;5040368;28;20211;-67
2022/01/28 02:55:38;;;;;;;41.93;17.13;;;;;;;-3.55;81.45;95411.81;5040461;28;20715;-67
2022/01/28 02:58:18;;;;;;;33.93;16.57;;;;;;;-3.71;81.45;95420.47;5040166;28;20314;-67
2022/01/28 03:00:46;;;;;;;31.60;16.30;;;;;;;-3.90;82.25;95418.31;5039977;28;20207;-67
2022/01/28 03:03:14;;;;;;;43.60;16.30;;;;;;;-3.97;82.73;95424.78;5039741;28;20203;-67
2022/01/28 03:05:41;;;;;;;45.73;19.70;;;;;;;-3.91;83.03;95416.63;5040304;28;20199;-67
2022/01/28 03:08:09;;;;;;;32.30;16.00;;;;;;;-3.78;82.65;95388.88;5039972;28;20241;-67
2022/01/28 03:11:02;;;;;;;39.57;18.07;;;;;;;-3.84;83.24;95396.16;5040010;28;20292;-68
2022/01/28 03:13:57;;;;;;;30.47;15.30;;;;;;;-3.74;83.01;95400.56;5039498;28;20273;-68
2022/01/28 03:16:23;;;;;;;33.63;17.57;;;;;;;-3.77;82.76;95400.47;5039960;28;20207;-68
2022/01/28 03:18:54;;;;;;;31.67;16.63;;;;;;;-3.73;83.19;95394.78;5041075;28;20241;-68
2022/01/28 03:21:28;;;;;;;33.40;16.67;;;;;;;-3.89;83.17;95397.66;5041568;28;20214;-67
2022/01/28 03:23:57;;;;;;;39.70;16.80;;;;;;;-3.91;83.44;95389.31;5041095;28;20317;-67
2022/01/28 03:26:26;;;;;;;33.60;15.40;;;;;;;-3.70;82.97;95374.97;5041309;28;20199;-68
2022/01/28 03:28:53;;;;;;;29.87;14.97;;;;;;;-3.32;82.12;95390.00;5041389;28;20717;-66
2022/01/28 03:31:20;;;;;;;29.17;15.77;;;;;;;-3.26;80.76;95382.72;5041188;28;20260;-68
2022/01/28 03:33:47;;;;;;;30.43;13.67;;;;;;;-3.21;80.32;95369.56;5041530;28;20649;-68
2022/01/28 03:36:14;;;;;;;36.37;14.50;;;;;;;-3.31;80.39;95344.47;5040988;28;20284;-68
2022/01/28 03:38:43;;;;;;;32.70;14.63;;;;;;;-3.57;80.59;95374.50;5041421;28;20588;-68
2022/01/28 03:41:16;;;;;;;24.53;13.63;;;;;;;-3.46;80.83;95348.25;5041193;28;20214;-68
2022/01/28 03:43:43;;;;;;;39.53;15.63;;;;;;;-3.54;80.65;95373.75;5041156;28;20341;-67
2022/01/28 03:46:10;;;;;;;28.30;14.40;;;;;;;-3.64;81.52;95362.72;5041150;28;20192;-67
2022/01/28 03:48:37;;;;;;;34.83;13.63;;;;;;;-3.50;81.92;95366.41;5040705;28;20203;-67
2022/01/28 03:51:04;;;;;;;26.37;14.30;;;;;;;-3.30;81.01;95361.91;5040776;28;20207;-68
2022/01/28 03:53:30;;;;;;;32.60;14.83;;;;;;;-3.43;80.40;95358.28;5037916;28;20234;-69
2022/01/28 03:55:58;;;;;;;34.00;15.37;;;;;;;-3.58;81.30;95357.91;5039067;28;20875;-69
2022/01/28 03:58:26;;;;;;;38.03;17.90;;;;;;;-3.26;80.58;95357.88;5039027;28;20239;-68
2022/01/28 04:00:55;;;;;;;32.40;19.00;;;;;;;-3.19;79.45;95347.25;5038815;28;20203;-69
2022/01/28 04:03:42;;;;;;;38.10;18.17;;;;;;;-3.38;80.19;95343.50;5038514;28;20199;-69
2022/01/28 04:11:45;;;;;;;57.87;22.87;;;;;;;-3.89;81.59;95340.56;5038289;28;20246;-68
2022/01/28 04:14:44;;;;;;;52.53;23.23;;;;;;;-3.63;81.81;95344.53;5038331;28;20293;-68
2022/01/28 04:17:21;;;;;;;57.10;24.77;;;;;;;-3.51;80.76;95344.84;5038624;28;20261;-69
2022/01/28 04:19:52;;;;;;;52.70;21.13;;;;;;;-3.78;81.00;95354.09;5038483;28;20316;-68
2022/01/28 04:22:22;;;;;;;37.63;20.43;;;;;;;-3.68;80.97;95360.13;5038633;28;20671;-68
2022/01/28 04:24:49;;;;;;;41.47;22.00;;;;;;;-3.56;80.44;95360.44;5040214;28;20795;-67
2022/01/28 04:27:16;;;;;;;52.60;21.97;;;;;;;-3.69;80.58;95361.75;5040342;28;20203;-68
2022/01/28 04:29:45;;;;;;;51.83;20.03;;;;;;;-3.94;80.89;95361.94;5040452;28;20206;-68
2022/01/28 04:32:12;;;;;;;46.53;22.00;;;;;;;-4.11;81.20;95340.00;5040234;28;20210;-68
2022/01/28 04:34:39;;;;;;;47.00;22.23;;;;;;;-3.80;81.13;95360.66;5039886;28;20761;-68
2022/01/28 04:37:14;;;;;;;48.33;24.27;;;;;;;-3.77;79.91;95365.72;5039896;28;20830;-68
2022/01/28 04:39:48;;;;;;;55.60;24.87;;;;;;;-4.09;81.07;95356.56;5040093;28;20227;-68
2022/01/28 04:42:26;;;;;;;51.53;25.10;;;;;;;-4.26;81.84;95347.03;5039801;28;20210;-68
2022/01/28 04:45:02;;;;;;;56.10;24.27;;;;;;;-4.22;81.82;95356.25;5040457;28;20207;-68
2022/01/28 04:47:36;;;;;;;75.70;36.50;;;;;;;-4.35;83.11;95359.19;5039726;28;20715;-68
2022/01/28 04:50:12;;;;;;;109.77;40.27;;;;;;;-4.14;83.00;95357.28;5039114;28;20213;-68
2022/01/28 04:53:08;;;;;;;71.10;31.30;;;;;;;-4.06;82.52;95369.06;5039975;28;20207;-68
2022/01/28 04:55:54;;;;;;;57.00;27.47;;;;;;;-4.18;82.54;95353.03;5037655;28;20210;-67
2022/01/28 04:58:36;;;;;;;54.13;26.30;;;;;;;-3.87;82.16;95353.84;5038059;28;20206;-67
2022/01/28 05:01:24;;;;;;;55.13;23.67;;;;;;;-3.59;81.27;95376.09;5036849;28;20203;-69
2022/01/28 05:04:03;;;;;;;54.63;26.47;;;;;;;-3.46;80.88;95372.25;5036511;28;20206;-68
2022/01/28 05:07:10;;;;;;;60.83;26.90;;;;;;;-3.68;80.37;95360.13;5037797;28;20215;-67
2022/01/28 05:24:07;;;;;;;60.10;26.37;;;;;;;-3.79;83.27;95359.88;5037670;28;20220;-69
2022/01/28 05:26:35;;;;;;;58.47;24.73;;;;;;;-3.67;82.58;95365.13;5037798;28;20302;-68
2022/01/28 05:29:02;;;;;;;70.67;28.90;;;;;;;-3.62;80.85;95371.06;5039404;28;20337;-68
2022/01/28 05:31:29;;;;;;;56.30;26.63;;;;;;;-3.70;81.37;95369.16;5039585;28;20199;-68
2022/01/28 05:33:57;;;;;;;62.77;27.57;;;;;;;-3.62;81.15;95376.03;5039633;28;20292;-68
2022/01/28 05:36:23;;;;;;;69.20;32.00;;;;;;;-3.77;80.84;95376.50;5038263;28;20584;-68
2022/01/28 05:38:51;;;;;;;51.23;26.70;;;;;;;-4.24;81.00;95375.22;5039280;28;20226;-68
2022/01/28 05:41:17;;;;;;;54.40;23.53;;;;;;;-3.88;81.36;95385.28;5038862;28;20752;-69
2022/01/28 05:43:44;;;;;;;54.53;25.07;;;;;;;-3.71;80.55;95375.78;5039164;28;20264;-68
2022/01/28 05:46:11;;;;;;;54.40;23.87;;;;;;;-3.58;79.25;95381.91;5039280;28;20689;-69
2022/01/28 05:48:38;;;;;;;51.93;22.57;;;;;;;-3.88;79.80;95385.28;5040604;28;20203;-67
2022/01/28 05:51:06;;;;;;;49.63;22.60;;;;;;;-4.01;82.34;95370.88;5043190;28;20554;-70
2022/01/28 05:53:32;;;;;;;60.97;24.30;;;;;;;-4.02;83.97;95368.34;5042877;28;20211;-70
2022/01/28 05:55:59;;;;;;;56.57;25.10;;;;;;;-3.84;84.10;95382.09;5042991;28;20412;-68
2022/01/28 05:58:26;;;;;;;66.40;27.60;;;;;;;-3.72;83.75;95371.66;5042937;28;20206;-70
2022/01/28 06:00:53;;;;;;;69.13;29.77;;;;;;;-3.61;82.73;95377.72;5042879;28;20292;-69
2022/01/28 06:03:20;;;;;;;102.93;39.33;;;;;;;-3.37;81.49;95371.66;5043048;28;20202;-69
2022/01/28 06:05:48;;;;;;;68.97;30.73;;;;;;;-2.95;79.94;95367.69;5040153;28;20198;-69
2022/01/28 06:08:16;;;;;;;72.63;33.83;;;;;;;-2.19;76.88;95378.44;5040673;28;20451;-68
2022/01/28 06:10:43;;;;;;;77.43;35.90;;;;;;;-1.44;73.67;95390.66;5040427;28;20231;-71
2022/01/28 06:13:11;;;;;;;77.67;33.50;;;;;;;-0.99;70.54;95397.22;5040757;28;20256;-69
2022/01/28 06:15:40;;;;;;;78.87;30.60;;;;;;;-0.92;68.99;95379.03;5040939;28;20658;-69
2022/01/28 06:18:07;;;;;;;75.60;31.03;;;;;;;-1.07;70.22;95397.09;5041200;28;20209;-69
2022/01/28 06:20:34;;;;;;;78.60;32.93;;;;;;;-0.86;69.64;95399.09;5040291;28;20358;-67
2022/01/28 06:23:02;;;;;;;68.20;31.83;;;;;;;0.42;66.67;95401.59;5039841;28;20731;-69
2022/01/28 06:25:31;;;;;;;84.83;32.80;;;;;;;1.51;63.65;95400.84;5040748;28;20222;-69
2022/01/28 06:27:58;;;;;;;77.17;37.30;;;;;;;2.43;59.88;95392.97;5040689;28;20199;-69
2022/01/28 06:30:25;;;;;;;94.50;41.13;;;;;;;2.74;58.35;95402.22;5040571;28;20654;-70
2022/01/28 06:32:54;;;;;;;96.37;43.57;;;;;;;2.94;58.52;95396.41;5040023;28;20203;-69
2022/01/28 06:35:21;;;;;;;103.53;44.80;;;;;;;3.77;56.22;95390.47;5040933;28;20316;-69
2022/01/28 06:37:50;;;;;;;114.10;52.30;;;;;;;4.51;53.68;95389.38;5042112;28;20203;-69
2022/01/28 06:40:18;;;;;;;121.77;51.57;;;;;;;4.78;51.30;95389.22;5042314;28;20231;-71
2022/01/28 06:42:46;;;;;;;113.93;50.63;;;;;;;4.04;52.81;95387.91;5041961;28;20207;-70
2022/01/28 06:45:13;;;;;;;156.00;60.40;;;;;;;4.18;53.54;95389.53;5042179;28;20256;-70
2022/01/28 06:47:40;;;;;;;175.03;66.17;;;;;;;4.61;51.75;95393.53;5041900;28;20253;-68
2022/01/28 06:50:10;;;;;;;158.70;63.07;;;;;;;4.65;51.29;95391.84;5041367;28;20264;-70
2022/01/28 06:52:38;;;;;;;133.33;59.97;;;;;;;5.31;50.88;95402.28;5041932;28;20669;-68
2022/01/28 06:55:06;;;;;;;142.47;55.33;;;;;;;5.98;49.95;95394.97;5042068;28;20199;-69
2022/01/28 06:57:33;;;;;;;139.60;56.77;;;;;;;6.87;47.05;95388.84;5041804;28;21181;-67
2022/01/28 07:00:01;;;;;;;155.38;54.95;;;;;;;7.40;46.18;95396.47;5041249;28;20231;-69
2022/01/28 07:02:28;;;;;;;109.67;46.83;;;;;;;7.72;44.50;95397.59;5041459;28;20705;-69
2022/01/28 07:04:55;;;;;;;125.25;48.10;;;;;;;8.25;43.54;95394.09;5039774;28;20660;-70
2022/01/28 07:07:23;;;;;;;116.53;48.42;;;;;;;7.89;43.70;95404.91;5039288;28;20319;-69
2022/01/28 07:09:50;;;;;;;108.75;47.55;;;;;;;7.48;44.25;95411.50;5039842;28;20191;-69
2022/01/28 07:12:16;;;;;;;119.43;50.27;;;;;;;7.14;46.45;95401.94;5039168;28;20203;-67
2022/01/28 07:14:43;;;;;;;96.23;44.00;;;;;;;6.66;46.96;95402.59;5039546;28;20264;-69
2022/01/28 07:17:12;;;;;;;107.90;46.47;;;;;;;5.37;49.75;95415.69;5039364;28;20207;-68
2022/01/28 07:19:39;;;;;;;106.10;45.07;;;;;;;4.45;52.80;95410.38;5038486;28;20259;-69
2022/01/28 07:22:06;;;;;;;95.57;40.67;;;;;;;5.43;51.38;95414.81;5038850;28;20214;-69
2022/01/28 07:24:33;;;;;;;97.28;40.80;;;;;;;6.47;48.63;95410.38;5039687;28;20223;-68
2022/01/28 07:27:00;;;;;;;83.27;35.83;;;;;;;7.48;46.14;95412.31;5039774;28;20657;-69
2022/01/28 07:29:30;;;;;;;80.15;35.65;;;;;;;6.19;48.10;95413.28;5039354;28;20629;-69
2022/01/28 07:31:57;;;;;;;57.63;29.15;;;;;;;4.68;51.86;95410.28;5039471;28;20210;-69
2022/01/28 07:34:25;;;;;;;47.07;27.23;;;;;;;3.74;54.49;95421.47;5039698;28;20206;-69
2022/01/28 07:36:52;;;;;;;61.63;28.90;;;;;;;3.57;55.58;95427.38;5040913;28;20241;-69
2022/01/28 07:39:19;;;;;;;63.77;31.77;;;;;;;4.06;57.60;95433.16;5041221;28;20269;-69
2022/01/28 07:41:46;;;;;;;68.03;30.23;;;;;;;5.67;52.25;95418.81;5040693;28;20752;-69
2022/01/28 07:44:13;;;;;;;54.50;26.77;;;;;;;6.47;49.62;95425.53;5040616;28;20666;-69
2022/01/28 07:46:40;;;;;;;40.03;17.33;;;;;;;7.20;46.94;95417.81;5040929;28;20218;-68
2022/01/28 07:49:06;;;;;;;36.08;17.67;;;;;;;8.22;44.86;95423.69;5040843;28;20219;-68
2022/01/28 07:51:35;;;;;;;41.23;18.07;;;;;;;9.27;42.41;95417.31;5041107;28;20199;-68
2022/01/28 07:54:03;;;;;;;38.88;16.48;;;;;;;10.16;40.68;95428.66;5040575;28;20199;-69
2022/01/28 07:56:30;;;;;;;38.60;18.02;;;;;;;10.24;39.99;95436.94;5040264;28;20301;-67
2022/01/28 07:58:57;;;;;;;28.55;14.60;;;;;;;10.62;39.33;95424.94;5040273;28;20211;-68
2022/01/28 08:01:23;;;;;;;28.25;13.57;;;;;;;11.48;37.45;95427.44;5040643;28;20725;-69
2022/01/28 08:03:50;;;;;;;31.90;13.27;;;;;;;12.48;35.39;95422.44;5040715;28;20203;-69
2022/01/28 08:06:17;;;;;;;40.42;13.63;;;;;;;11.82;35.54;95419.59;5040941;28;20199;-69
2022/01/28 08:08:45;;;;;;;34.20;14.20;;;;;;;10.15;38.91;95422.75;5040584;28;20560;-68
2022/01/28 08:11:12;;;;;;;23.83;13.18;;;;;;;10.76;37.19;95423.66;5035657;28;20316;-68
2022/01/28 08:13:38;;;;;;;31.23;14.20;;;;;;;11.14;37.05;95396.25;5037818;28;20732;-68
2022/01/28 08:16:05;;;;;;;24.30;12.70;;;;;;;10.34;38.25;95404.53;5038552;28;20202;-69
2022/01/28 08:18:32;;;;;;;23.63;13.48;;;;;;;10.77;37.11;95391.44;5038787;28;20253;-69
2022/01/28 08:20:59;;;;;;;26.98;13.77;;;;;;;11.62;36.01;95383.72;5038288;28;20642;-68
2022/01/28 08:23:26;;;;;;;42.70;16.67;;;;;;;11.16;36.48;95384.31;5038322;28;20249;-68
2022/01/28 08:25:55;;;;;;;44.40;19.55;;;;;;;11.29;36.08;95380.53;5038342;28;20199;-68
2022/01/28 08:28:22;;;;;;;50.13;23.42;;;;;;;12.72;33.93;95385.03;5038452;28;20679;-67
2022/01/28 08:30:49;;;;;;;41.92;20.92;;;;;;;14.83;30.63;95371.28;5038358;28;20218;-67
2022/01/28 08:33:16;;;;;;;53.15;20.63;;;;;;;15.52;29.05;95384.25;5037885;28;20994;-68
2022/01/28 08:35:50;;;;;;;47.65;21.20;;;;;;;13.42;31.85;95393.41;5038081;28;20206;-68
2022/01/28 08:38:24;;;;;;;33.53;17.25;;;;;;;12.85;32.42;95394.75;5037811;28;20224;-67
2022/01/28 08:40:51;;;;;;;30.95;16.25;;;;;;;13.69;31.46;95381.28;5038916;28;20226;-67
2022/01/28 08:43:20;;;;;;;33.03;16.83;;;;;;;11.38;35.39;95390.44;5040015;28;20199;-68
2022/01/28 08:45:46;;;;;;;48.67;26.80;;;;;;;8.68;40.64;95394.09;5039960;28;20327;-68
2022/01/28 08:48:13;;;;;;;59.47;28.17;;;;;;;7.45;44.27;95399.72;5039707;28;20203;-67
2022/01/28 08:50:40;;;;;;;69.38;35.03;;;;;;;7.54;44.61;95410.56;5039747;28;20207;-67
2022/01/28 08:53:07;;;;;;;71.73;35.23;;;;;;;10.33;39.18;95395.25;5039826;28;20290;-67
2022/01/28 08:55:34;;;;;;;64.90;35.53;;;;;;;12.22;35.25;95395.31;5039284;28;20638;-67
2022/01/28 08:58:00;;;;;;;62.70;32.10;;;;;;;13.26;33.07;95400.00;5039760;28;20199;-67
2022/01/28 09:00:29;;;;;;;75.95;35.05;;;;;;;12.61;34.24;95405.84;5037926;28;20238;-67
2022/01/28 09:02:55;;;;;;;72.95;36.90;;;;;;;12.94;33.28;95404.59;5039015;28;20228;-68
2022/01/28 09:05:22;;;;;;;82.22;35.65;;;;;;;13.55;32.19;95407.38;5037930;28;20253;-68
2022/01/28 09:07:50;;;;;;;75.65;34.25;;;;;;;14.52;31.03;95404.22;5039709;28;20211;-67
2022/01/28 09:10:19;;;;;;;63.05;34.53;;;;;;;13.33;32.54;95403.16;5039291;28;20230;-67
2022/01/28 09:13:10;;;;;;;79.00;38.17;;;;;;;12.39;34.47;95407.44;5039624;28;20227;-68
2022/01/28 09:15:39;;;;;;;88.57;39.38;;;;;;;11.13;36.40;95398.00;5039541;28;20673;-67
2022/01/28 09:18:07;;;;;;;77.03;37.38;;;;;;;9.68;39.96;95408.72;5039440;28;20199;-67
2022/01/28 09:20:35;;;;;;;89.15;39.88;;;;;;;8.98;41.26;95407.81;5039604;28;20231;-68
2022/01/28 09:23:03;;;;;;;72.53;37.90;;;;;;;7.78;43.36;95417.75;5039237;28;20933;-66
2022/01/28 09:25:31;;;;;;;73.53;33.83;;;;;;;6.93;46.92;95421.63;5039202;28;20288;-67
2022/01/28 09:27:58;;;;;;;76.47;33.97;;;;;;;6.10;48.38;95416.72;5039217;28;20198;-68
2022/01/28 09:30:25;;;;;;;66.50;29.70;;;;;;;5.88;48.14;95403.47;5039101;28;20676;-67
2022/01/28 09:32:56;;;;;;;64.50;31.20;;;;;;;5.66;48.86;95417.97;5039434;28;20207;-67
2022/01/28 09:35:22;;;;;;;56.15;27.90;;;;;;;5.55;49.23;95426.47;5039166;28;20210;-66
2022/01/28 09:37:49;;;;;;;55.27;25.60;;;;;;;4.81;51.37;95423.63;5036028;28;20580;-67
2022/01/28 09:40:16;;;;;;;50.40;25.83;;;;;;;4.62;51.87;95422.88;5037495;28;20227;-68
2022/01/28 09:42:45;;;;;;;56.28;25.30;;;;;;;4.48;53.07;95428.81;5037014;28;20203;-66
2022/01/28 09:45:16;;;;;;;49.70;25.00;;;;;;;4.45;52.96;95415.41;5036875;28;20198;-69
2022/01/28 09:47:46;;;;;;;52.27;26.00;;;;;;;4.31;54.27;95414.63;5036121;28;20284;-69
2022/01/28 09:50:15;;;;;;;58.70;29.17;;;;;;;4.15;54.23;95399.59;5036386;28;20217;-66
2022/01/28 09:52:43;;;;;;;59.17;29.57;;;;;;;4.22;54.43;95403.75;5036948;28;20211;-67
2022/01/28 09:55:10;;;;;;;62.20;30.07;;;;;;;4.20;55.55;95415.53;5036640;28;20744;-66
2022/01/28 09:57:36;;;;;;;75.97;31.93;;;;;;;4.13;55.66;95422.25;5036217;28;20810;-66
2022/01/28 10:00:05;;;;;;;59.40;30.17;;;;;;;4.55;57.61;95423.75;5036814;28;20195;-68
2022/01/28 10:02:48;;;;;;;60.33;30.17;;;;;;;4.57;55.77;95429.63;5037091;28;20217;-67
2022/01/28 10:05:23;;;;;;;67.80;31.17;;;;;;;4.17;56.71;95423.91;5036608;28;20573;-68
2022/01/28 10:08:09;;;;;;;78.17;34.43;;;;;;;3.85;57.55;95426.50;5037749;28;20345;-68
2022/01/28 10:10:59;;;;;;;70.07;32.57;;;;;;;3.33;59.67;95428.22;5038001;28;20733;-67
2022/01/28 10:13:31;;;;;;;75.43;34.20;;;;;;;3.83;58.76;95425.66;5033832;28;20215;-66
2022/01/28 10:16:04;;;;;;;73.50;34.30;;;;;;;4.12;57.80;95429.78;5038745;28;20210;-68
2022/01/28 10:18:50;;;;;;;76.30;33.67;;;;;;;3.97;57.76;95430.66;5038306;28;20257;-67
2022/01/28 10:21:31;;;;;;;74.97;32.70;;;;;;;3.96;57.64;95424.78;5038978;28;20292;-67
2022/01/28 10:24:07;;;;;;;71.87;33.37;;;;;;;3.60;58.41;95433.25;5038640;28;20235;-67
2022/01/28 10:26:37;;;;;;;68.20;34.33;;;;;;;3.38;60.00;95429.91;5038354;28;20260;-67
2022/01/28 10:29:05;;;;;;;70.73;33.13;;;;;;;3.20;59.99;95439.97;5038110;28;20322;-68
2022/01/28 10:31:44;;;;;;;69.30;34.17;;;;;;;3.28;59.98;95437.44;5038786;28;20273;-68
2022/01/28 10:34:18;;;;;;;69.83;31.83;;;;;;;3.24;61.22;95435.75;5038659;28;20672;-68
2022/01/28 10:36:47;;;;;;;73.53;31.87;;;;;;;3.08;60.53;95425.72;5041558;28;20211;-66
2022/01/28 10:39:22;;;;;;;56.17;28.73;;;;;;;3.30;60.53;95423.19;5038076;28;20588;-68
2022/01/28 10:41:57;;;;;;;58.30;27.77;;;;;;;3.54;59.39;95424.88;5039587;28;20238;-66
2022/01/28 10:44:26;;;;;;;71.83;27.90;;;;;;;3.69;58.04;95435.75;5040159;28;20205;-68
2022/01/28 10:47:06;;;;;;;73.00;29.77;;;;;;;3.78;58.05;95429.03;5039639;28;20916;-67
2022/01/28 10:49:35;;;;;;;60.23;28.03;;;;;;;3.72;57.84;95429.88;5039317;28;20615;-69
2022/01/28 10:52:09;;;;;;;57.93;27.43;;;;;;;3.77;58.99;95428.19;5040217;28;20268;-66
2022/01/28 10:54:36;;;;;;;70.10;33.90;;;;;;;3.69;59.04;95429.91;5039298;28;20292;-69
2022/01/28 10:57:04;;;;;;;69.53;34.17;;;;;;;3.76;58.63;95434.06;5043603;28;20199;-68
2022/01/28 10:59:33;;;;;;;58.13;28.83;;;;;;;3.71;57.77;95430.72;5044806;28;20256;-67
2022/01/28 11:02:00;;;;;;;51.13;26.53;;;;;;;3.65;58.44;95429.06;5047574;28;20238;-66
2022/01/28 11:04:27;;;;;;;68.77;29.80;;;;;;;3.63;58.75;95399.75;5050436;28;20261;-66
2022/01/28 11:06:57;;;;;;;63.57;27.83;;;;;;;3.63;59.42;95419.84;5047470;28;20264;-68
2022/01/28 11:09:25;;;;;;;56.70;28.17;;;;;;;3.66;59.72;95417.31;5049169;28;20627;-67
2022/01/28 11:11:54;;;;;;;59.80;28.57;;;;;;;3.72;59.49;95419.81;5050155;28;20231;-68
2022/01/28 11:14:22;;;;;;;57.70;27.17;;;;;;;3.83;58.70;95420.66;5050128;28;20191;-68
2022/01/28 11:16:49;;;;;;;64.77;28.07;;;;;;;3.95;58.69;95418.13;5050335;28;20199;-68
2022/01/28 11:19:18;;;;;;;51.67;27.73;;;;;;;3.79;59.70;95415.63;5050037;28;20692;-67
2022/01/28 11:21:56;;;;;;;53.17;26.58;;;;;;;3.67;60.41;95406.44;5049952;28;20656;-67
2022/01/28 11:24:36;;;;;;;49.57;24.67;;;;;;;3.81;60.01;95402.22;5049682;28;20646;-66
2022/01/28 11:27:10;;;;;;;43.27;21.90;;;;;;;3.99;60.89;95402.16;5050236;28;20194;-67
2022/01/28 11:29:37;;;;;;;33.10;14.53;;;;;;;4.10;61.43;95404.66;5050507;28;20709;-67
2022/01/28 11:32:14;;;;;;;16.83;10.00;;;;;;;4.12;62.73;95399.63;5051462;28;20656;-66
2022/01/28 11:34:58;;;;;;;11.83;7.40;;;;;;;4.27;63.15;95407.09;5052230;28;20198;-66
2022/01/28 11:37:27;;;;;;;9.63;4.73;;;;;;;4.34;64.13;95399.53;5052233;28;20234;-67
2022/01/28 11:40:07;;;;;;;6.83;5.00;;;;;;;4.36;64.53;95389.47;5051971;28;20199;-68
2022/01/28 11:42:34;;;;;;;9.73;4.53;;;;;;;4.37;65.66;95391.13;5052157;28;20264;-67
2022/01/28 11:45:03;;;;;;;6.00;4.30;;;;;;;4.41;65.60;95392.78;5049707;28;20253;-67
2022/01/28 11:47:32;;;;;;;8.00;4.57;;;;;;;4.28;65.60;95363.50;5038034;28;20195;-68
2022/01/28 11:50:05;;;;;;;7.23;4.57;;;;;;;4.35;66.05;95375.22;5049521;28;20206;-65
2022/01/28 11:52:33;;;;;;;11.18;5.00;;;;;;;4.45;65.42;95392.75;5035161;28;20196;-66
2022/01/28 11:55:32;;;;;;;9.07;6.53;;;;;;;4.50;66.38;95390.22;5029833;28;20191;-67
2022/01/28 11:58:01;;;;;;;6.93;5.60;;;;;;;4.54;65.92;95398.59;5029487;28;20195;-66
2022/01/28 12:00:31;;;;;;;5.23;4.37;;;;;;;4.61;65.72;95388.50;5029283;28;20286;-69
2022/01/28 12:02:58;;;;;;;9.75;4.22;;;;;;;4.58;66.31;95370.06;5029986;28;20199;-67
2022/01/28 12:05:40;;;;;;;6.67;4.60;;;;;;;4.71;66.30;95367.44;5049900;28;20253;-66
2022/01/28 12:08:08;;;;;;;7.97;4.78;;;;;;;4.88;65.98;95376.59;5032727;28;20743;-67
2022/01/28 12:10:42;;;;;;;9.83;4.70;;;;;;;4.94;65.77;95374.88;5046750;28;20242;-67
2022/01/28 12:13:12;;;;;;;5.60;5.10;;;;;;;4.90;65.53;95363.16;5048240;28;20206;-66
2022/01/28 12:16:13;;;;;;;6.67;4.73;;;;;;;4.96;66.02;95359.72;5042349;28;20203;-66
2022/01/28 12:18:59;;;;;;;5.90;4.13;;;;;;;5.08;65.80;95367.19;5031559;28;20597;-67
2022/01/28 12:21:27;;;;;;;5.68;4.20;;;;;;;5.19;65.82;95367.97;5031133;28;20303;-68
2022/01/28 12:23:55;;;;;;;5.27;4.50;;;;;;;5.25;65.86;95362.84;5031436;28;20598;-67
2022/01/28 12:26:24;;;;;;;5.38;4.43;;;;;;;5.17;65.47;95357.06;5031539;28;20261;-67
2022/01/28 12:28:53;;;;;;;4.97;4.40;;;;;;;5.19;65.96;95354.53;5031434;28;20200;-66